Time;durP1;ratioP1;P1;durP2;ratioP2;P2;SDS_P1;SDS_P2;PMS_P1;PMS_P2;Temp;Humidity;BMP_temperature;BMP_pressure;BME280_temperature;BME280_humidity;BME280_pressure;Samples;Min_cycle;Max_cycle;Signal;HPM_P1;HPM_P2
2023/05/03 00:00:38;;;;;;;1999.90;999.90;;;8.90;99.90;;;;;;4992425;28;20181;-69
2023/05/03 00:03:05;;;;;;;1999.90;999.90;;;9.30;99.90;;;;;;4992007;28;20204;-70
2023/05/03 00:05:31;;;;;;;1999.90;999.90;;;8.80;99.90;;;;;;4992724;28;20507;-70
2023/05/03 00:07:58;;;;;;;1999.90;999.90;;;8.80;99.90;;;;;;4992425;28;20446;-69
2023/05/03 00:10:24;;;;;;;1999.90;999.90;;;8.80;99.90;;;;;;4992471;28;20473;-70
2023/05/03 00:12:50;;;;;;;1999.90;999.90;;;8.70;99.90;;;;;;4992165;28;20401;-70
2023/05/03 00:15:15;;;;;;;1999.90;999.90;;;8.70;99.90;;;;;;4992186;28;20868;-70
2023/05/03 00:17:41;;;;;;;1999.90;999.90;;;8.60;99.90;;;;;;4992170;28;20251;-71
2023/05/03 00:20:07;;;;;;;1999.90;999.90;;;8.60;99.90;;;;;;4992332;28;20617;-69
2023/05/03 00:22:32;;;;;;;1999.90;999.90;;;8.60;99.90;;;;;;4994928;28;20260;-70
2023/05/03 00:24:59;;;;;;;1999.90;999.90;;;8.50;99.90;;;;;;4996052;28;20519;-69
2023/05/03 00:27:24;;;;;;;1999.90;999.90;;;8.50;99.90;;;;;;4996182;28;20251;-69
2023/05/03 00:29:51;;;;;;;1999.90;999.90;;;8.50;99.90;;;;;;4996127;28;20433;-70
2023/05/03 00:32:17;;;;;;;1999.90;999.90;;;8.60;99.90;;;;;;4995646;28;20550;-70
2023/05/03 00:34:43;;;;;;;1999.90;999.90;;;8.50;99.90;;;;;;4995908;28;20431;-69
2023/05/03 00:37:09;;;;;;;1999.90;999.90;;;8.60;99.90;;;;;;4996165;28;20947;-70
2023/05/03 00:39:35;;;;;;;1999.90;999.90;;;8.40;99.90;;;;;;4996062;28;20264;-70
2023/05/03 00:42:02;;;;;;;1999.90;999.90;;;8.40;99.90;;;;;;4995714;28;20490;-70
2023/05/03 00:44:28;;;;;;;1999.90;999.90;;;8.40;99.90;;;;;;4995835;28;20230;-70
2023/05/03 00:46:55;;;;;;;1999.90;999.90;;;8.40;99.90;;;;;;4995779;28;20436;-70
2023/05/03 00:49:23;;;;;;;1999.90;999.90;;;8.30;99.90;;;;;;4995782;28;20413;-70
2023/05/03 00:51:50;;;;;;;1999.90;999.90;;;8.20;99.90;;;;;;4995340;28;20837;-70
2023/05/03 00:54:16;;;;;;;1999.90;999.90;;;8.20;99.90;;;;;;4995552;28;21194;-71
2023/05/03 00:56:42;;;;;;;1999.90;999.90;;;8.10;99.90;;;;;;4995726;28;20410;-70
2023/05/03 00:59:10;;;;;;;1999.90;999.90;;;8.10;99.90;;;;;;4995510;28;20416;-71
2023/05/03 01:01:35;;;;;;;1999.90;999.90;;;8.00;99.90;;;;;;4995181;28;20779;-70
2023/05/03 01:04:02;;;;;;;1999.90;999.90;;;8.00;99.90;;;;;;4995651;28;20429;-70
2023/05/03 01:06:31;;;;;;;1999.90;999.90;;;8.00;99.90;;;;;;4995480;28;20169;-71
2023/05/03 01:09:41;;;;;;;1999.90;999.90;;;8.00;99.90;;;;;;4995535;28;20455;-70
2023/05/03 01:12:25;;;;;;;1999.90;999.90;;;7.90;99.90;;;;;;4915698;29;20501;-70
2023/05/03 01:15:02;;;;;;;1999.90;999.90;;;7.90;99.90;;;;;;4915900;29;20454;-70
2023/05/03 01:17:38;;;;;;;1999.90;999.90;;;7.90;99.90;;;;;;4972190;28;20492;-70
2023/05/03 01:20:10;;;;;;;1999.90;999.90;;;7.90;99.90;;;;;;4995240;28;20421;-70
2023/05/03 01:22:48;;;;;;;1999.90;999.90;;;7.90;99.90;;;;;;4994769;28;20948;-70
2023/05/03 01:25:15;;;;;;;1999.90;999.90;;;7.90;99.90;;;;;;4995098;28;20411;-70
2023/05/03 01:27:41;;;;;;;1999.90;999.90;;;7.80;99.90;;;;;;4995120;28;20435;-70
2023/05/03 01:30:09;;;;;;;1999.90;999.90;;;7.70;99.90;;;;;;4994865;28;20395;-71
2023/05/03 01:33:06;;;;;;;1999.90;999.90;;;7.70;99.90;;;;;;4993722;28;20400;-70
2023/05/03 01:35:49;;;;;;;1999.90;999.90;;;7.70;99.90;;;;;;4994923;28;20456;-70
2023/05/03 01:38:16;;;;;;;1999.90;999.90;;;7.70;99.90;;;;;;4994932;28;20483;-70
2023/05/03 01:40:49;;;;;;;1999.90;999.90;;;7.60;99.90;;;;;;4994759;28;20440;-70
2023/05/03 01:43:16;;;;;;;1999.90;999.90;;;7.40;99.90;;;;;;4994436;28;20495;-71
2023/05/03 01:45:43;;;;;;;1999.90;999.90;;;7.60;99.90;;;;;;4994851;28;20435;-70
2023/05/03 01:48:18;;;;;;;1999.90;999.90;;;7.50;99.90;;;;;;4994707;28;20443;-70
2023/05/03 01:50:44;;;;;;;1999.90;999.90;;;7.50;99.90;;;;;;4994570;28;20484;-70
2023/05/03 01:53:10;;;;;;;1999.90;999.90;;;7.40;99.90;;;;;;4994284;28;20437;-70
2023/05/03 01:55:36;;;;;;;1999.90;999.90;;;7.40;99.90;;;;;;4994561;28;20176;-70
2023/05/03 01:58:02;;;;;;;1999.90;999.90;;;7.40;99.90;;;;;;4994369;28;20402;-71
2023/05/03 02:00:27;;;;;;;1999.90;999.90;;;7.40;99.90;;;;;;4994471;28;20565;-70
2023/05/03 02:02:53;;;;;;;1999.90;999.90;;;7.40;99.90;;;;;;4994125;28;20176;-70
2023/05/03 02:05:19;;;;;;;1999.90;999.90;;;7.40;99.90;;;;;;4994377;28;20202;-70
2023/05/03 02:07:44;;;;;;;1999.90;999.90;;;7.30;99.90;;;;;;4994341;28;20171;-70
2023/05/03 02:10:13;;;;;;;1999.90;999.90;;;7.30;99.90;;;;;;4994289;28;20170;-70
2023/05/03 02:12:40;;;;;;;1999.90;999.90;;;7.30;99.90;;;;;;4994127;28;20183;-70
2023/05/03 02:15:06;;;;;;;1999.90;999.90;;;7.20;99.90;;;;;;4993970;28;20443;-70
2023/05/03 02:17:33;;;;;;;1999.90;999.90;;;7.20;99.90;;;;;;4994183;28;20404;-72
2023/05/03 02:19:58;;;;;;;1999.90;999.90;;;7.20;99.90;;;;;;4993997;28;20441;-71
2023/05/03 02:22:24;;;;;;;1999.90;999.90;;;7.20;99.90;;;;;;4993767;28;20505;-70
2023/05/03 02:24:49;;;;;;;1999.90;999.90;;;7.20;99.90;;;;;;4993816;28;20195;-70
2023/05/03 02:27:15;;;;;;;1999.90;999.90;;;7.10;99.90;;;;;;4993979;28;20180;-70
2023/05/03 02:29:41;;;;;;;1999.90;999.90;;;7.10;99.90;;;;;;4993884;28;20178;-70
2023/05/03 02:32:06;;;;;;;1999.90;999.90;;;7.10;99.90;;;;;;4993461;28;20540;-70
2023/05/03 02:34:32;;;;;;;1999.90;999.90;;;7.10;99.90;;;;;;4993834;28;20191;-70
2023/05/03 02:36:58;;;;;;;1999.90;999.90;;;7.10;99.90;;;;;;4993793;28;20175;-70
2023/05/03 02:39:24;;;;;;;1999.90;999.90;;;7.10;99.90;;;;;;4993676;28;20193;-70
2023/05/03 02:41:49;;;;;;;1999.90;999.90;;;7.10;99.90;;;;;;4993341;28;20413;-70
2023/05/03 02:44:15;;;;;;;1999.90;999.90;;;7.00;99.90;;;;;;4993510;28;20205;-70
2023/05/03 02:46:41;;;;;;;1999.90;999.90;;;7.00;99.90;;;;;;4993576;28;20645;-71
2023/05/03 02:49:07;;;;;;;1999.90;999.90;;;7.00;99.90;;;;;;4993564;28;20204;-70
2023/05/03 02:51:33;;;;;;;1999.90;999.90;;;6.90;99.90;;;;;;4993092;28;20222;-71
2023/05/03 02:53:59;;;;;;;1999.90;999.90;;;6.90;99.90;;;;;;4993373;28;20778;-71
2023/05/03 02:56:25;;;;;;;1999.90;999.90;;;6.90;99.90;;;;;;4993422;28;20447;-70
2023/05/03 02:58:51;;;;;;;1999.90;999.90;;;6.80;99.90;;;;;;4993431;28;20168;-70
2023/05/03 03:01:17;;;;;;;1999.90;999.90;;;6.80;99.90;;;;;;4993046;28;20937;-70
2023/05/03 03:03:42;;;;;;;1999.90;999.90;;;6.80;99.90;;;;;;4993298;28;20865;-70
2023/05/03 03:06:08;;;;;;;1999.90;999.90;;;6.80;99.90;;;;;;4993273;28;20175;-70
2023/05/03 03:08:35;;;;;;;1999.90;999.90;;;6.70;99.90;;;;;;4993152;28;20664;-70
2023/05/03 03:11:01;;;;;;;1999.90;999.90;;;6.70;99.90;;;;;;4992901;28;20670;-70
2023/05/03 03:13:27;;;;;;;1999.90;999.90;;;6.60;99.90;;;;;;4992904;28;20513;-70
2023/05/03 03:15:52;;;;;;;1999.90;999.90;;;6.60;99.90;;;;;;4993260;28;20198;-70
2023/05/03 03:18:18;;;;;;;1999.90;999.90;;;6.50;99.90;;;;;;4993038;28;20172;-70
2023/05/03 03:20:43;;;;;;;1999.90;999.90;;;6.50;99.90;;;;;;4992953;28;20174;-70
2023/05/03 03:23:10;;;;;;;1999.90;999.90;;;6.40;99.90;;;;;;4992609;28;20182;-70
2023/05/03 03:25:35;;;;;;;1999.90;999.90;;;6.40;99.90;;;;;;4992889;28;20379;-70
2023/05/03 03:28:01;;;;;;;1999.90;999.90;;;6.60;99.90;;;;;;4992860;28;20466;-70
2023/05/03 03:30:27;;;;;;;1999.90;999.90;;;6.40;99.90;;;;;;4992918;28;20636;-70
2023/05/03 03:32:52;;;;;;;1999.90;999.90;;;6.30;99.90;;;;;;4992532;28;20166;-70
2023/05/03 03:35:18;;;;;;;1999.90;999.90;;;6.30;99.90;;;;;;4992721;28;20569;-72
2023/05/03 03:37:44;;;;;;;1999.90;999.90;;;6.30;99.90;;;;;;4992751;28;20200;-72
2023/05/03 03:40:10;;;;;;;1999.90;999.90;;;6.20;99.90;;;;;;4992710;28;20441;-72
2023/05/03 03:42:36;;;;;;;1999.90;999.90;;;6.20;99.90;;;;;;4992396;28;20179;-72
2023/05/03 03:45:03;;;;;;;1999.90;999.90;;;6.20;99.90;;;;;;4992531;28;20431;-72
2023/05/03 03:47:29;;;;;;;1999.90;999.90;;;6.30;99.90;;;;;;4992780;28;20448;-71
2023/05/03 03:49:54;;;;;;;1999.90;999.90;;;6.20;99.90;;;;;;4992617;28;20432;-72
2023/05/03 03:52:20;;;;;;;1999.90;999.90;;;6.20;99.90;;;;;;4992762;28;20256;-70
2023/05/03 03:54:45;;;;;;;1999.90;999.90;;;6.20;99.90;;;;;;4992500;28;20252;-70
2023/05/03 03:57:11;;;;;;;1999.90;999.90;;;6.10;99.90;;;;;;4991963;28;20168;-70
2023/05/03 03:59:36;;;;;;;1999.90;999.90;;;6.20;99.90;;;;;;4992500;28;20165;-70
2023/05/03 04:02:02;;;;;;;1999.90;999.90;;;6.20;99.90;;;;;;4992087;28;20261;-70
2023/05/03 04:04:27;;;;;;;1999.90;999.90;;;6.20;99.90;;;;;;4992492;28;20193;-70
2023/05/03 04:06:53;;;;;;;1999.90;999.90;;;6.20;99.90;;;;;;4992423;28;20182;-71
2023/05/03 04:09:19;;;;;;;1999.90;999.90;;;6.20;99.90;;;;;;4992447;28;20166;-70
2023/05/03 04:11:45;;;;;;;1999.90;999.90;;;6.20;99.90;;;;;;4992020;28;20272;-70
2023/05/03 04:14:10;;;;;;;1999.90;999.90;;;6.20;99.90;;;;;;4992273;28;20240;-70
2023/05/03 04:16:36;;;;;;;1999.90;999.90;;;6.20;99.90;;;;;;4992388;28;20413;-70
2023/05/03 04:19:01;;;;;;;1999.90;999.90;;;6.20;99.90;;;;;;4992433;28;20667;-70
2023/05/03 04:21:27;;;;;;;1999.90;999.90;;;6.20;99.90;;;;;;4991983;28;20180;-70
2023/05/03 04:23:53;;;;;;;1999.90;999.90;;;6.20;99.90;;;;;;4992375;28;20202;-70
2023/05/03 04:26:23;;;;;;;1999.90;999.90;;;6.20;99.90;;;;;;4992312;28;20179;-70
2023/05/03 04:28:50;;;;;;;1999.90;999.90;;;6.20;99.90;;;;;;4992182;28;20495;-70
2023/05/03 04:31:17;;;;;;;1999.90;999.90;;;6.20;99.90;;;;;;4991965;28;20508;-71
2023/05/03 04:33:43;;;;;;;1999.90;999.90;;;6.30;99.90;;;;;;4992245;28;20949;-70
2023/05/03 04:36:09;;;;;;;1999.90;999.90;;;6.20;99.90;;;;;;4992093;28;20402;-70
2023/05/03 04:38:35;;;;;;;1999.90;999.90;;;6.30;99.90;;;;;;4992146;28;20461;-70
2023/05/03 04:41:01;;;;;;;1999.90;999.90;;;6.20;99.90;;;;;;4991963;28;20534;-70
2023/05/03 04:43:27;;;;;;;1999.90;999.90;;;6.20;99.90;;;;;;4992171;28;20444;-70
2023/05/03 04:45:52;;;;;;;1999.90;999.90;;;6.10;99.90;;;;;;4992092;28;20406;-71
2023/05/03 04:48:18;;;;;;;1999.90;999.90;;;6.00;99.90;;;;;;4992046;28;20174;-70
2023/05/03 04:50:44;;;;;;;1999.90;999.90;;;5.90;99.90;;;;;;4991965;28;20189;-70
2023/05/03 04:53:10;;;;;;;1999.90;999.90;;;5.90;99.90;;;;;;4991736;28;20173;-70
2023/05/03 04:55:35;;;;;;;1999.90;999.90;;;5.90;99.90;;;;;;4991918;28;20410;-70
2023/05/03 04:58:01;;;;;;;1999.90;999.90;;;6.10;99.90;;;;;;4992057;28;20540;-70
2023/05/03 05:00:27;;;;;;;1999.90;999.90;;;6.10;99.90;;;;;;4991899;28;20174;-70
2023/05/03 05:02:52;;;;;;;1999.90;999.90;;;6.10;99.90;;;;;;4991638;28;20170;-71
2023/05/03 05:05:18;;;;;;;1999.90;999.90;;;6.20;99.90;;;;;;4991793;28;20221;-72
2023/05/03 05:07:44;;;;;;;1999.90;999.90;;;6.30;99.90;;;;;;4993657;28;20183;-72
2023/05/03 05:10:11;;;;;;;1999.90;999.90;;;6.30;99.90;;;;;;4995283;28;20927;-72
2023/05/03 05:12:37;;;;;;;1999.90;999.90;;;6.40;99.90;;;;;;4994976;28;20464;-72
2023/05/03 05:15:03;;;;;;;1999.90;999.90;;;6.50;99.90;;;;;;4995116;28;20476;-72
2023/05/03 05:17:29;;;;;;;1999.90;999.90;;;6.60;99.90;;;;;;4995307;28;20421;-72
2023/05/03 05:19:54;;;;;;;1999.90;999.90;;;6.60;99.90;;;;;;4995168;28;20437;-72
2023/05/03 05:22:20;;;;;;;1999.90;999.90;;;6.70;99.90;;;;;;4995023;28;20417;-71
2023/05/03 05:24:46;;;;;;;1999.90;999.90;;;6.80;99.90;;;;;;4994952;28;20206;-72
2023/05/03 05:27:11;;;;;;;1999.90;999.90;;;6.80;99.90;;;;;;4995046;28;20179;-71
2023/05/03 05:29:37;;;;;;;1999.90;999.90;;;6.90;99.90;;;;;;4995100;28;20173;-72
2023/05/03 05:32:04;;;;;;;1999.90;999.90;;;6.80;99.90;;;;;;4994667;28;20213;-72
2023/05/03 05:34:30;;;;;;;1999.90;999.90;;;6.90;99.90;;;;;;4994879;28;20182;-71
2023/05/03 05:36:56;;;;;;;1999.90;999.90;;;6.90;99.90;;;;;;4994909;28;20409;-72
2023/05/03 05:39:22;;;;;;;1999.90;999.90;;;6.90;99.90;;;;;;4994836;28;20440;-71
2023/05/03 05:41:48;;;;;;;1999.90;999.90;;;7.00;99.90;;;;;;4994561;28;20209;-71
2023/05/03 05:44:13;;;;;;;1999.90;999.90;;;7.10;99.90;;;;;;4994701;28;20198;-73
2023/05/03 05:46:39;;;;;;;1999.90;999.90;;;7.10;99.90;;;;;;4994900;28;20171;-72
2023/05/03 05:49:05;;;;;;;1999.90;999.90;;;7.20;99.90;;;;;;4994662;28;20236;-72
2023/05/03 05:51:31;;;;;;;1999.90;999.90;;;7.20;99.90;;;;;;4994251;28;20203;-72
2023/05/03 05:53:57;;;;;;;1999.90;999.90;;;7.30;99.90;;;;;;4994615;28;20500;-72
2023/05/03 05:56:23;;;;;;;1999.90;999.90;;;7.40;99.90;;;;;;4994677;28;20584;-72
2023/05/03 05:58:48;;;;;;;1999.90;999.90;;;7.50;99.90;;;;;;4994488;28;20843;-71
2023/05/03 06:01:14;;;;;;;1999.90;999.90;;;7.60;99.90;;;;;;5002860;28;20177;-72
2023/05/03 06:03:39;;;;;;;1999.90;999.90;;;7.60;99.90;;;;;;5013882;28;20223;-72
2023/05/03 06:06:05;;;;;;;1999.90;999.90;;;7.70;99.90;;;;;;5014139;28;20567;-72
2023/05/03 06:08:31;;;;;;;1999.90;999.90;;;7.70;99.90;;;;;;5013854;28;20174;-72
2023/05/03 06:10:56;;;;;;;1999.90;999.90;;;7.80;99.90;;;;;;5013674;28;20205;-72
2023/05/03 06:13:22;;;;;;;1999.90;999.90;;;7.90;99.90;;;;;;5013681;28;20563;-72
2023/05/03 06:15:48;;;;;;;1999.90;999.90;;;7.90;99.90;;;;;;5013836;28;20174;-72
2023/05/03 06:18:13;;;;;;;1999.90;999.90;;;8.00;99.90;;;;;;5013696;28;20685;-72
2023/05/03 06:20:39;;;;;;;1999.90;999.90;;;8.10;99.90;;;;;;5013093;28;20636;-72
2023/05/03 06:23:05;;;;;;;1999.90;999.90;;;8.10;99.90;;;;;;5013298;28;20194;-72
2023/05/03 06:25:30;;;;;;;1999.90;999.90;;;8.20;99.90;;;;;;5013537;28;20409;-72
2023/05/03 06:27:56;;;;;;;1999.90;999.90;;;8.30;99.90;;;;;;5013642;28;20176;-72
2023/05/03 06:30:24;;;;;;;1999.90;999.90;;;8.30;99.90;;;;;;5013404;28;20221;-71
2023/05/03 06:32:51;;;;;;;1999.90;999.90;;;8.40;99.90;;;;;;5013154;28;20199;-71
2023/05/03 06:35:18;;;;;;;1999.90;999.90;;;8.50;99.90;;;;;;5013332;28;20456;-72
2023/05/03 06:37:44;;;;;;;1999.90;999.90;;;8.60;99.90;;;;;;5013240;28;20176;-72
2023/05/03 06:40:10;;;;;;;1999.90;999.90;;;8.70;99.90;;;;;;5013115;28;20416;-72
2023/05/03 06:42:36;;;;;;;1999.90;999.90;;;8.70;99.90;;;;;;5012453;28;20964;-72
2023/05/03 06:45:02;;;;;;;1999.90;999.90;;;8.80;99.90;;;;;;5002437;28;20501;-72
2023/05/03 06:47:27;;;;;;;1999.90;999.90;;;8.90;99.90;;;;;;5007312;28;20943;-71
2023/05/03 06:49:53;;;;;;;1999.90;999.90;;;8.80;99.90;;;;;;5013173;28;20680;-72
2023/05/03 06:52:18;;;;;;;1999.90;999.90;;;9.00;99.90;;;;;;5012590;28;20207;-72
2023/05/03 06:54:44;;;;;;;1999.90;999.90;;;9.20;99.90;;;;;;5013154;28;20203;-72
2023/05/03 06:57:09;;;;;;;1999.90;999.90;;;9.30;99.90;;;;;;5013067;28;20172;-72
2023/05/03 06:59:35;;;;;;;1999.90;999.90;;;9.20;99.90;;;;;;5012967;28;20177;-72
2023/05/03 07:02:01;;;;;;;1999.90;999.90;;;9.10;99.90;;;;;;5012551;28;20217;-72
2023/05/03 07:04:27;;;;;;;1999.90;999.90;;;9.20;99.90;;;;;;5012758;28;20243;-72
2023/05/03 07:06:52;;;;;;;1999.90;999.90;;;9.40;99.90;;;;;;5013021;28;20211;-72
2023/05/03 07:09:18;;;;;;;1999.90;999.90;;;9.50;99.90;;;;;;5012811;28;20408;-72
2023/05/03 07:11:48;;;;;;;1999.90;999.90;;;9.50;99.90;;;;;;5012417;28;20205;-72
2023/05/03 07:14:14;;;;;;;1999.90;999.90;;;9.60;99.90;;;;;;5012610;28;20216;-72
2023/05/03 07:16:40;;;;;;;1999.90;999.90;;;9.80;99.90;;;;;;5012607;28;20418;-71
2023/05/03 07:19:05;;;;;;;1999.90;999.90;;;9.70;99.90;;;;;;5012817;28;20486;-71
2023/05/03 07:21:32;;;;;;;1999.90;999.90;;;9.80;99.90;;;;;;5012272;28;20626;-71
2023/05/03 07:23:58;;;;;;;1999.90;999.90;;;9.70;99.90;;;;;;5012624;28;20622;-71
2023/05/03 07:26:25;;;;;;;1999.90;999.90;;;9.90;99.90;;;;;;5012498;28;20426;-71
2023/05/03 07:28:51;;;;;;;1999.90;999.90;;;10.10;99.90;;;;;;5012516;28;20177;-70
2023/05/03 07:31:17;;;;;;;1999.90;999.90;;;10.30;99.90;;;;;;5011141;28;20469;-72
2023/05/03 07:33:42;;;;;;;1999.90;999.90;;;10.30;99.90;;;;;;5012378;28;20438;-71
2023/05/03 07:36:08;;;;;;;1999.90;999.90;;;10.50;99.90;;;;;;5012576;28;20578;-71
2023/05/03 07:38:33;;;;;;;1999.90;999.90;;;10.60;99.90;;;;;;5012354;28;20173;-71
2023/05/03 07:40:59;;;;;;;1999.90;999.90;;;10.70;99.90;;;;;;5012118;28;20673;-71
2023/05/03 07:43:25;;;;;;;1999.90;999.90;;;10.80;99.90;;;;;;5012325;28;20208;-71
2023/05/03 07:45:50;;;;;;;1999.90;999.90;;;10.80;99.90;;;;;;5012232;28;20248;-71
2023/05/03 07:48:16;;;;;;;1999.90;999.90;;;11.00;99.90;;;;;;5012321;28;20632;-71
2023/05/03 07:50:42;;;;;;;1999.90;999.90;;;11.10;99.90;;;;;;5012335;28;20275;-71
2023/05/03 07:53:08;;;;;;;1999.90;999.90;;;11.10;99.90;;;;;;5012015;28;20231;-70
2023/05/03 07:55:35;;;;;;;1999.90;999.90;;;11.30;99.90;;;;;;5007892;28;20784;-72
2023/05/03 07:58:02;;;;;;;1999.90;999.90;;;11.40;99.90;;;;;;5007882;28;20240;-71
2023/05/03 08:00:28;;;;;;;1999.90;999.90;;;11.50;99.90;;;;;;5007359;28;20417;-71
2023/05/03 08:02:53;;;;;;;1999.90;999.90;;;11.50;99.90;;;;;;5007790;28;20789;-72
2023/05/03 08:05:19;;;;;;;1999.90;999.90;;;11.60;99.90;;;;;;5007268;28;20219;-70
2023/05/03 08:07:45;;;;;;;1999.90;999.90;;;11.70;99.90;;;;;;5007256;28;20217;-70
2023/05/03 08:10:11;;;;;;;1999.90;999.90;;;11.80;99.90;;;;;;5008102;28;20192;-71
2023/05/03 08:12:36;;;;;;;1999.90;999.90;;;11.80;99.90;;;;;;5009334;28;20478;-71
2023/05/03 08:15:05;;;;;;;1999.90;999.90;;;11.90;99.90;;;;;;5011857;28;20260;-72
2023/05/03 08:17:31;;;;;;;1999.90;999.90;;;12.00;99.90;;;;;;5011973;28;20177;-71
2023/05/03 08:19:57;;;;;;;1999.90;999.90;;;12.10;99.90;;;;;;5011807;28;20409;-71
2023/05/03 08:22:25;;;;;;;1999.90;999.90;;;12.20;99.90;;;;;;5011641;28;20414;-71
2023/05/03 08:24:52;;;;;;;1999.90;999.90;;;12.20;99.90;;;;;;5011839;28;20201;-71
2023/05/03 08:27:18;;;;;;;1999.90;999.90;;;12.30;99.90;;;;;;5011209;28;20957;-71
2023/05/03 08:29:43;;;;;;;1999.90;999.90;;;12.30;99.90;;;;;;5011381;28;20508;-71
2023/05/03 08:32:09;;;;;;;1999.90;999.90;;;12.40;99.90;;;;;;5011549;28;20202;-71
2023/05/03 08:34:35;;;;;;;1999.90;999.90;;;12.50;99.90;;;;;;5011697;28;20201;-71
2023/05/03 08:37:03;;;;;;;1999.90;999.90;;;12.60;99.90;;;;;;5011811;28;20634;-71
2023/05/03 08:39:30;;;;;;;1999.90;999.90;;;12.70;99.90;;;;;;5011788;28;20413;-72
2023/05/03 08:41:55;;;;;;;1999.90;999.90;;;12.80;99.90;;;;;;5011696;28;20492;-71
2023/05/03 08:44:22;;;;;;;1999.90;999.90;;;12.80;99.90;;;;;;5015685;28;20883;-71
2023/05/03 08:46:49;;;;;;;1999.90;999.90;;;12.90;99.90;;;;;;5015631;28;20186;-71
2023/05/03 08:49:16;;;;;;;1999.90;999.90;;;13.00;99.90;;;;;;5015217;28;20422;-71
2023/05/03 08:51:46;;;;;;;1999.90;999.90;;;13.10;99.90;;;;;;5014944;28;20880;-71
2023/05/03 08:54:15;;;;;;;1999.90;999.90;;;13.20;99.90;;;;;;5015108;28;20431;-71
2023/05/03 08:56:42;;;;;;;1999.90;999.90;;;13.40;99.90;;;;;;5015156;28;20797;-71
2023/05/03 08:59:10;;;;;;;1999.90;999.90;;;13.50;99.90;;;;;;5015214;28;20492;-71
2023/05/03 09:01:36;;;;;;;1999.90;999.90;;;13.40;99.90;;;;;;5015075;28;20430;-72
2023/05/03 09:04:02;;;;;;;1999.90;999.90;;;13.50;99.90;;;;;;5015029;28;20435;-71
2023/05/03 09:06:29;;;;;;;1999.90;999.90;;;13.50;99.90;;;;;;5015094;28;20418;-71
2023/05/03 09:08:55;;;;;;;1999.90;999.90;;;13.70;99.90;;;;;;5015119;28;20464;-72
2023/05/03 09:11:26;;;;;;;1999.90;999.90;;;13.70;99.90;;;;;;5014647;28;20465;-72
2023/05/03 09:13:53;;;;;;;1999.90;999.90;;;13.60;99.90;;;;;;5014962;28;20446;-72
2023/05/03 09:16:26;;;;;;;1999.90;999.90;;;13.80;99.90;;;;;;5014863;28;20415;-72
2023/05/03 09:19:10;;;;;;;1999.90;999.90;;;13.90;99.90;;;;;;5014873;28;20503;-71
2023/05/03 09:21:37;;;;;;;1999.90;999.90;;;14.00;99.90;;;;;;5014480;28;20411;-72
2023/05/03 09:24:16;;;;;;;1999.90;999.90;;;14.00;99.90;;;;;;5014716;28;20436;-71
2023/05/03 09:26:42;;;;;;;1999.90;999.90;;;14.00;99.90;;;;;;5014758;28;20413;-71
2023/05/03 09:29:08;;;;;;;1999.90;999.90;;;14.10;99.90;;;;;;5014774;28;20424;-71
2023/05/03 09:31:35;;;;;;;1999.90;999.90;;;14.20;99.80;;;;;;5014164;28;20506;-71
2023/05/03 09:34:01;;;;;;;1999.90;999.90;;;14.40;99.90;;;;;;5014948;28;20472;-71
2023/05/03 09:36:27;;;;;;;1999.90;999.90;;;14.50;99.90;;;;;;5014469;28;20446;-71
2023/05/03 09:38:54;;;;;;;1999.90;999.90;;;14.50;99.90;;;;;;5014440;28;20168;-72
2023/05/03 09:41:30;;;;;;;1999.90;999.90;;;14.60;99.90;;;;;;5014159;28;20175;-71
2023/05/03 09:44:01;;;;;;;1999.90;999.90;;;14.80;99.90;;;;;;5014362;28;20454;-71
2023/05/03 09:46:28;;;;;;;1999.90;999.90;;;14.80;99.60;;;;;;5014356;28;20445;-71
2023/05/03 09:48:56;;;;;;;1999.90;999.90;;;15.00;98.60;;;;;;5014100;28;20453;-72
2023/05/03 09:51:23;;;;;;;1999.90;999.90;;;15.10;98.10;;;;;;5014665;28;20491;-71
2023/05/03 09:53:49;;;;;;;1999.90;999.90;;;15.20;96.10;;;;;;5013096;28;20459;-72
2023/05/03 09:56:16;;;;;;;1999.90;999.90;;;15.20;94.50;;;;;;5014149;28;20438;-72
2023/05/03 09:58:42;;;;;;;1999.90;999.90;;;15.40;95.20;;;;;;5014117;28;20415;-71
2023/05/03 10:01:09;;;;;;;1999.90;999.90;;;15.50;95.20;;;;;;5013797;28;20428;-71
2023/05/03 10:03:49;;;;;;;1999.90;999.90;;;15.70;94.30;;;;;;5013914;28;20429;-71
2023/05/03 10:06:34;;;;;;;1999.90;999.90;;;15.80;92.90;;;;;;5014135;28;20404;-71
2023/05/03 10:09:11;;;;;;;1999.90;999.90;;;15.90;88.50;;;;;;5013925;28;20419;-72
2023/05/03 10:11:36;;;;;;;1999.90;999.90;;;16.10;88.10;;;;;;5013488;28;20466;-72
2023/05/03 10:14:05;;;;;;;1999.90;999.90;;;16.00;77.50;;;;;;5013674;28;20542;-72
2023/05/03 10:16:37;;;;;;;1999.90;999.90;;;16.00;84.00;;;;;;5013818;28;20348;-72
2023/05/03 10:19:15;;;;;;;1999.90;999.90;;;16.10;79.10;;;;;;5013675;28;20417;-72
2023/05/03 10:22:04;;;;;;;1999.90;999.90;;;16.20;85.30;;;;;;5013449;28;20405;-72
2023/05/03 10:24:30;;;;;;;1999.90;999.90;;;16.30;84.70;;;;;;5013534;28;20438;-72
2023/05/03 10:26:59;;;;;;;1999.90;999.90;;;16.50;82.40;;;;;;5013505;28;20418;-72
2023/05/03 10:29:33;;;;;;;1999.90;999.90;;;16.60;82.00;;;;;;5013647;28;20416;-72
2023/05/03 10:32:00;;;;;;;1999.90;999.90;;;16.50;76.00;;;;;;5013099;28;20449;-72
2023/05/03 10:34:31;;;;;;;1999.90;999.90;;;16.60;76.20;;;;;;5013801;28;20437;-72
2023/05/03 10:37:01;;;;;;;1999.90;999.90;;;16.80;73.30;;;;;;5013605;28;20506;-72
2023/05/03 10:39:27;;;;;;;1999.90;999.90;;;17.00;68.20;;;;;;5013507;28;20803;-72
2023/05/03 10:42:03;;;;;;;1999.90;999.90;;;17.10;71.20;;;;;;5013002;28;20485;-73
2023/05/03 10:44:37;;;;;;;1999.90;999.90;;;17.30;62.40;;;;;;5013194;28;20455;-72
2023/05/03 10:47:13;;;;;;;1999.90;999.90;;;17.30;54.30;;;;;;5013053;28;20924;-72
2023/05/03 10:49:39;;;;;;;1999.90;999.90;;;17.30;48.50;;;;;;5013131;28;20416;-72
2023/05/03 10:52:37;;;;;;;1999.90;999.90;;;17.30;52.80;;;;;;5012911;28;20452;-72
2023/05/03 10:55:08;;;;;;;1999.90;999.90;;;17.30;50.90;;;;;;5012864;28;20431;-72
2023/05/03 10:57:36;;;;;;;1999.90;999.90;;;17.30;52.10;;;;;;5013001;28;20410;-71
2023/05/03 11:00:07;;;;;;;1999.90;999.90;;;17.30;46.10;;;;;;5013228;28;20411;-72
2023/05/03 11:02:37;;;;;;;1999.90;999.90;;;17.40;51.70;;;;;;5012663;28;20410;-72
2023/05/03 11:05:07;;;;;;;1999.90;999.90;;;17.60;54.70;;;;;;5012668;28;20438;-72
2023/05/03 11:07:33;;;;;;;1999.90;999.90;;;17.70;47.60;;;;;;5012991;28;20470;-72
2023/05/03 11:09:59;;;;;;;1999.90;999.90;;;17.80;47.30;;;;;;5012723;28;20405;-72
2023/05/03 11:12:24;;;;;;;1999.90;999.90;;;18.00;46.80;;;;;;5012436;28;20204;-72
2023/05/03 11:14:50;;;;;;;1999.90;999.90;;;18.20;46.90;;;;;;5012626;28;20651;-71
2023/05/03 11:17:16;;;;;;;1999.90;999.90;;;18.10;33.50;;;;;;5012676;28;20253;-71
2023/05/03 11:19:43;;;;;;;1999.90;999.90;;;18.10;39.50;;;;;;5012609;28;20176;-72
2023/05/03 11:22:09;;;;;;;1999.90;999.90;;;18.20;46.30;;;;;;5012336;28;20509;-71
2023/05/03 11:24:34;;;;;;;1999.90;999.90;;;18.30;44.50;;;;;;5012469;28;20514;-71
2023/05/03 11:27:01;;;;;;;1999.90;999.90;;;18.20;37.80;;;;;;5012338;28;20490;-71
2023/05/03 11:29:27;;;;;;;1999.90;999.90;;;18.30;40.20;;;;;;5012533;28;20262;-72
2023/05/03 11:31:53;;;;;;;1999.90;999.90;;;18.40;38.40;;;;;;5006502;28;20543;-70
2023/05/03 11:34:18;;;;;;;1999.90;999.90;;;18.60;41.50;;;;;;5004499;28;20433;-70
2023/05/03 11:36:44;;;;;;;1999.90;999.90;;;18.80;38.50;;;;;;5008195;28;20177;-71
2023/05/03 11:39:14;;;;;;;1999.90;999.90;;;18.90;39.30;;;;;;5007950;28;20186;-70
2023/05/03 11:41:41;;;;;;;1999.90;999.90;;;19.00;44.50;;;;;;5006771;28;20193;-72
2023/05/03 11:44:07;;;;;;;1999.90;999.90;;;19.20;39.70;;;;;;5007911;28;20444;-72
2023/05/03 11:46:36;;;;;;;1999.90;999.90;;;19.40;36.10;;;;;;5008380;28;20431;-72
2023/05/03 11:49:02;;;;;;;1999.90;999.90;;;19.50;34.50;;;;;;5006946;28;20429;-71
2023/05/03 11:51:28;;;;;;;1999.90;999.90;;;19.60;32.30;;;;;;5007262;28;20429;-72
2023/05/03 11:53:55;;;;;;;1999.90;999.90;;;19.80;28.20;;;;;;5008105;28;20511;-71
2023/05/03 11:56:21;;;;;;;1999.90;999.90;;;20.30;33.00;;;;;;5006645;28;20255;-72
2023/05/03 11:58:56;;;;;;;1999.90;999.90;;;21.10;26.70;;;;;;5007859;28;20464;-72
2023/05/03 12:01:28;;;;;;;1999.90;999.90;;;21.90;25.20;;;;;;5007826;28;20422;-72
2023/05/03 12:03:58;;;;;;;1999.90;999.90;;;22.80;23.90;;;;;;5007660;28;20398;-71